sensor_id;sensor_type;location;lat;lon;timestamp;P1;durP1;ratioP1;P2;durP2;ratioP2
54388;SDS011;40975;50.390;8.640;2023-04-24T00:00:13;0.93;;;0.85;;
54388;SDS011;40975;50.390;8.640;2023-04-24T00:02:41;2.15;;;1.00;;
54388;SDS011;40975;50.390;8.640;2023-04-24T00:05:09;2.67;;;0.95;;
54388;SDS011;40975;50.390;8.640;2023-04-24T00:07:35;1.67;;;0.90;;
54388;SDS011;40975;50.390;8.640;2023-04-24T00:10:00;1.15;;;0.70;;
54388;SDS011;40975;50.390;8.640;2023-04-24T00:12:26;0.85;;;0.65;;
54388;SDS011;40975;50.390;8.640;2023-04-24T00:14:52;0.93;;;0.60;;
54388;SDS011;40975;50.390;8.640;2023-04-24T00:17:17;1.13;;;0.80;;
54388;SDS011;40975;50.390;8.640;2023-04-24T00:19:45;2.17;;;0.90;;
54388;SDS011;40975;50.390;8.640;2023-04-24T00:22:11;0.95;;;0.70;;
54388;SDS011;40975;50.390;8.640;2023-04-24T00:24:38;1.00;;;0.80;;
54388;SDS011;40975;50.390;8.640;2023-04-24T00:27:04;1.70;;;0.68;;
54388;SDS011;40975;50.390;8.640;2023-04-24T00:29:29;2.58;;;0.82;;
54388;SDS011;40975;50.390;8.640;2023-04-24T00:31:54;0.82;;;0.60;;
54388;SDS011;40975;50.390;8.640;2023-04-24T00:34:20;1.80;;;0.80;;
54388;SDS011;40975;50.390;8.640;2023-04-24T00:36:45;1.27;;;0.77;;
54388;SDS011;40975;50.390;8.640;2023-04-24T00:39:10;1.48;;;0.70;;
54388;SDS011;40975;50.390;8.640;2023-04-24T00:41:36;1.38;;;1.25;;
54388;SDS011;40975;50.390;8.640;2023-04-24T00:44:01;2.25;;;1.27;;
54388;SDS011;40975;50.390;8.640;2023-04-24T00:46:27;1.30;;;1.13;;
54388;SDS011;40975;50.390;8.640;2023-04-24T00:48:53;1.27;;;0.95;;
54388;SDS011;40975;50.390;8.640;2023-04-24T00:51:19;1.60;;;1.00;;
54388;SDS011;40975;50.390;8.640;2023-04-24T00:53:45;0.98;;;0.90;;
54388;SDS011;40975;50.390;8.640;2023-04-24T00:56:10;1.95;;;0.90;;
54388;SDS011;40975;50.390;8.640;2023-04-24T00:58:36;1.17;;;0.73;;
54388;SDS011;40975;50.390;8.640;2023-04-24T01:01:01;1.35;;;0.90;;
54388;SDS011;40975;50.390;8.640;2023-04-24T01:03:31;3.97;;;1.27;;
54388;SDS011;40975;50.390;8.640;2023-04-24T01:05:56;0.73;;;0.73;;
54388;SDS011;40975;50.390;8.640;2023-04-24T01:08:26;0.75;;;0.70;;
54388;SDS011;40975;50.390;8.640;2023-04-24T01:10:53;0.98;;;0.77;;
54388;SDS011;40975;50.390;8.640;2023-04-24T01:13:20;2.35;;;0.90;;
54388;SDS011;40975;50.390;8.640;2023-04-24T01:15:46;1.50;;;1.10;;
54388;SDS011;40975;50.390;8.640;2023-04-24T01:18:11;2.65;;;1.05;;
54388;SDS011;40975;50.390;8.640;2023-04-24T01:20:37;2.08;;;0.98;;
54388;SDS011;40975;50.390;8.640;2023-04-24T01:23:05;2.25;;;0.80;;
54388;SDS011;40975;50.390;8.640;2023-04-24T01:25:31;2.45;;;1.10;;
54388;SDS011;40975;50.390;8.640;2023-04-24T01:27:57;3.20;;;1.20;;
54388;SDS011;40975;50.390;8.640;2023-04-24T01:30:24;0.93;;;0.80;;
54388;SDS011;40975;50.390;8.640;2023-04-24T01:32:50;3.83;;;1.40;;
54388;SDS011;40975;50.390;8.640;2023-04-24T01:35:16;1.35;;;0.95;;
54388;SDS011;40975;50.390;8.640;2023-04-24T01:37:42;3.13;;;1.13;;
54388;SDS011;40975;50.390;8.640;2023-04-24T01:40:07;2.33;;;1.30;;
54388;SDS011;40975;50.390;8.640;2023-04-24T01:42:34;2.05;;;1.30;;
54388;SDS011;40975;50.390;8.640;2023-04-24T01:45:01;5.30;;;1.65;;
54388;SDS011;40975;50.390;8.640;2023-04-24T01:47:29;2.08;;;1.30;;
54388;SDS011;40975;50.390;8.640;2023-04-24T01:49:56;1.40;;;1.30;;
54388;SDS011;40975;50.390;8.640;2023-04-24T01:52:21;3.63;;;1.73;;
54388;SDS011;40975;50.390;8.640;2023-04-24T01:54:47;1.92;;;1.50;;
54388;SDS011;40975;50.390;8.640;2023-04-24T01:57:13;1.67;;;1.55;;
54388;SDS011;40975;50.390;8.640;2023-04-24T01:59:40;1.50;;;1.23;;
54388;SDS011;40975;50.390;8.640;2023-04-24T02:02:07;2.25;;;1.75;;
54388;SDS011;40975;50.390;8.640;2023-04-24T02:04:34;1.55;;;1.42;;
54388;SDS011;40975;50.390;8.640;2023-04-24T02:06:59;3.13;;;2.13;;
54388;SDS011;40975;50.390;8.640;2023-04-24T02:09:24;2.35;;;2.00;;
54388;SDS011;40975;50.390;8.640;2023-04-24T02:11:50;4.50;;;2.50;;
54388;SDS011;40975;50.390;8.640;2023-04-24T02:14:16;3.30;;;2.40;;
54388;SDS011;40975;50.390;8.640;2023-04-24T02:16:42;4.43;;;2.15;;
54388;SDS011;40975;50.390;8.640;2023-04-24T02:19:08;2.75;;;2.03;;
54388;SDS011;40975;50.390;8.640;2023-04-24T02:21:34;2.20;;;2.00;;
54388;SDS011;40975;50.390;8.640;2023-04-24T02:24:00;2.90;;;2.38;;
54388;SDS011;40975;50.390;8.640;2023-04-24T02:26:25;2.63;;;2.42;;
54388;SDS011;40975;50.390;8.640;2023-04-24T02:28:51;3.65;;;2.00;;
54388;SDS011;40975;50.390;8.640;2023-04-24T02:31:19;3.85;;;1.90;;
54388;SDS011;40975;50.390;8.640;2023-04-24T02:33:46;1.80;;;1.70;;
54388;SDS011;40975;50.390;8.640;2023-04-24T02:36:12;1.55;;;1.38;;
54388;SDS011;40975;50.390;8.640;2023-04-24T02:38:38;2.92;;;2.00;;
54388;SDS011;40975;50.390;8.640;2023-04-24T02:41:04;2.08;;;1.42;;
54388;SDS011;40975;50.390;8.640;2023-04-24T02:43:31;1.80;;;1.50;;
54388;SDS011;40975;50.390;8.640;2023-04-24T02:45:58;2.95;;;1.92;;
54388;SDS011;40975;50.390;8.640;2023-04-24T02:48:23;1.77;;;1.65;;
54388;SDS011;40975;50.390;8.640;2023-04-24T02:50:49;2.53;;;1.50;;
54388;SDS011;40975;50.390;8.640;2023-04-24T02:53:16;1.35;;;1.25;;
54388;SDS011;40975;50.390;8.640;2023-04-24T02:55:41;3.38;;;1.70;;
54388;SDS011;40975;50.390;8.640;2023-04-24T02:58:06;1.50;;;1.40;;
54388;SDS011;40975;50.390;8.640;2023-04-24T03:00:32;1.65;;;1.35;;
54388;SDS011;40975;50.390;8.640;2023-04-24T03:02:57;2.60;;;1.30;;
54388;SDS011;40975;50.390;8.640;2023-04-24T03:05:23;1.40;;;1.30;;
54388;SDS011;40975;50.390;8.640;2023-04-24T03:07:48;3.35;;;1.52;;
54388;SDS011;40975;50.390;8.640;2023-04-24T03:10:14;1.27;;;1.10;;
54388;SDS011;40975;50.390;8.640;2023-04-24T03:12:40;1.73;;;1.08;;
54388;SDS011;40975;50.390;8.640;2023-04-24T03:15:06;1.20;;;0.93;;
54388;SDS011;40975;50.390;8.640;2023-04-24T03:17:31;2.70;;;0.80;;
54388;SDS011;40975;50.390;8.640;2023-04-24T03:19:57;1.60;;;1.35;;
54388;SDS011;40975;50.390;8.640;2023-04-24T03:22:23;2.15;;;0.60;;
54388;SDS011;40975;50.390;8.640;2023-04-24T03:24:48;2.25;;;1.55;;
54388;SDS011;40975;50.390;8.640;2023-04-24T03:27:16;1.42;;;0.98;;
54388;SDS011;40975;50.390;8.640;2023-04-24T03:29:59;1.08;;;0.80;;
54388;SDS011;40975;50.390;8.640;2023-04-24T03:32:33;1.52;;;1.30;;
54388;SDS011;40975;50.390;8.640;2023-04-24T03:34:58;1.67;;;0.80;;
54388;SDS011;40975;50.390;8.640;2023-04-24T03:37:24;0.70;;;0.70;;
54388;SDS011;40975;50.390;8.640;2023-04-24T03:40:04;1.45;;;0.80;;
54388;SDS011;40975;50.390;8.640;2023-04-24T03:42:33;1.38;;;0.82;;
54388;SDS011;40975;50.390;8.640;2023-04-24T03:44:58;0.90;;;0.90;;
54388;SDS011;40975;50.390;8.640;2023-04-24T03:47:29;1.10;;;0.80;;
54388;SDS011;40975;50.390;8.640;2023-04-24T03:49:57;2.45;;;1.00;;
54388;SDS011;40975;50.390;8.640;2023-04-24T03:52:22;0.90;;;0.90;;
54388;SDS011;40975;50.390;8.640;2023-04-24T03:54:48;1.60;;;0.88;;
54388;SDS011;40975;50.390;8.640;2023-04-24T03:57:13;2.55;;;0.90;;
54388;SDS011;40975;50.390;8.640;2023-04-24T03:59:49;2.78;;;1.20;;
54388;SDS011;40975;50.390;8.640;2023-04-24T04:02:17;1.13;;;1.02;;
54388;SDS011;40975;50.390;8.640;2023-04-24T04:04:42;1.98;;;0.90;;
54388;SDS011;40975;50.390;8.640;2023-04-24T04:07:09;1.63;;;1.00;;
54388;SDS011;40975;50.390;8.640;2023-04-24T04:09:34;1.13;;;0.98;;
54388;SDS011;40975;50.390;8.640;2023-04-24T04:11:59;1.65;;;0.90;;
54388;SDS011;40975;50.390;8.640;2023-04-24T04:14:26;1.20;;;1.08;;
54388;SDS011;40975;50.390;8.640;2023-04-24T04:16:52;1.45;;;1.20;;
54388;SDS011;40975;50.390;8.640;2023-04-24T04:19:17;1.70;;;1.00;;
54388;SDS011;40975;50.390;8.640;2023-04-24T04:21:42;1.08;;;0.95;;
54388;SDS011;40975;50.390;8.640;2023-04-24T04:24:15;3.17;;;0.98;;
54388;SDS011;40975;50.390;8.640;2023-04-24T04:26:45;1.13;;;0.80;;
54388;SDS011;40975;50.390;8.640;2023-04-24T04:29:16;1.33;;;1.10;;
54388;SDS011;40975;50.390;8.640;2023-04-24T04:31:44;1.42;;;0.90;;
54388;SDS011;40975;50.390;8.640;2023-04-24T04:34:12;3.33;;;1.27;;
54388;SDS011;40975;50.390;8.640;2023-04-24T04:36:39;1.85;;;1.08;;
54388;SDS011;40975;50.390;8.640;2023-04-24T04:39:38;1.23;;;0.98;;
54388;SDS011;40975;50.390;8.640;2023-04-24T04:42:11;1.40;;;0.95;;
54388;SDS011;40975;50.390;8.640;2023-04-24T04:44:41;1.10;;;1.00;;
54388;SDS011;40975;50.390;8.640;2023-04-24T04:47:09;2.72;;;0.90;;
54388;SDS011;40975;50.390;8.640;2023-04-24T04:49:37;1.30;;;1.02;;
54388;SDS011;40975;50.390;8.640;2023-04-24T04:52:06;1.13;;;0.90;;
54388;SDS011;40975;50.390;8.640;2023-04-24T04:54:31;1.02;;;0.70;;
54388;SDS011;40975;50.390;8.640;2023-04-24T04:56:57;1.30;;;0.98;;
54388;SDS011;40975;50.390;8.640;2023-04-24T04:59:22;2.40;;;1.10;;
54388;SDS011;40975;50.390;8.640;2023-04-24T05:01:53;1.17;;;0.77;;
54388;SDS011;40975;50.390;8.640;2023-04-24T05:04:19;1.10;;;1.00;;
54388;SDS011;40975;50.390;8.640;2023-04-24T05:06:45;1.83;;;1.10;;
54388;SDS011;40975;50.390;8.640;2023-04-24T05:09:12;1.23;;;1.00;;
54388;SDS011;40975;50.390;8.640;2023-04-24T05:11:46;1.58;;;1.00;;
54388;SDS011;40975;50.390;8.640;2023-04-24T05:14:12;1.73;;;1.00;;
54388;SDS011;40975;50.390;8.640;2023-04-24T05:16:39;1.08;;;0.90;;
54388;SDS011;40975;50.390;8.640;2023-04-24T05:19:06;1.40;;;1.30;;
54388;SDS011;40975;50.390;8.640;2023-04-24T05:21:38;1.95;;;1.20;;
54388;SDS011;40975;50.390;8.640;2023-04-24T05:24:04;1.27;;;1.00;;
54388;SDS011;40975;50.390;8.640;2023-04-24T05:26:59;1.92;;;0.85;;
54388;SDS011;40975;50.390;8.640;2023-04-24T05:29:30;1.80;;;1.30;;
54388;SDS011;40975;50.390;8.640;2023-04-24T05:31:57;2.17;;;1.08;;
54388;SDS011;40975;50.390;8.640;2023-04-24T05:34:22;1.13;;;1.02;;
54388;SDS011;40975;50.390;8.640;2023-04-24T05:36:52;2.40;;;0.80;;
54388;SDS011;40975;50.390;8.640;2023-04-24T05:39:18;2.75;;;1.30;;
54388;SDS011;40975;50.390;8.640;2023-04-24T05:41:45;1.05;;;0.90;;
54388;SDS011;40975;50.390;8.640;2023-04-24T05:44:10;1.30;;;0.90;;
54388;SDS011;40975;50.390;8.640;2023-04-24T05:46:35;1.25;;;1.13;;
54388;SDS011;40975;50.390;8.640;2023-04-24T05:49:01;3.15;;;1.10;;
54388;SDS011;40975;50.390;8.640;2023-04-24T05:51:27;1.52;;;1.27;;
54388;SDS011;40975;50.390;8.640;2023-04-24T05:53:53;1.42;;;1.08;;
54388;SDS011;40975;50.390;8.640;2023-04-24T05:56:19;4.78;;;1.15;;
54388;SDS011;40975;50.390;8.640;2023-04-24T05:58:45;1.63;;;0.90;;
54388;SDS011;40975;50.390;8.640;2023-04-24T06:01:11;1.15;;;0.95;;
54388;SDS011;40975;50.390;8.640;2023-04-24T06:03:40;1.30;;;1.20;;
54388;SDS011;40975;50.390;8.640;2023-04-24T06:06:07;1.40;;;1.23;;
54388;SDS011;40975;50.390;8.640;2023-04-24T06:08:34;2.20;;;1.33;;
54388;SDS011;40975;50.390;8.640;2023-04-24T06:11:00;1.40;;;1.17;;
54388;SDS011;40975;50.390;8.640;2023-04-24T06:13:25;3.15;;;1.77;;
54388;SDS011;40975;50.390;8.640;2023-04-24T06:16:20;2.47;;;1.48;;
54388;SDS011;40975;50.390;8.640;2023-04-24T06:18:52;3.72;;;1.60;;
54388;SDS011;40975;50.390;8.640;2023-04-24T06:21:20;2.47;;;1.48;;
54388;SDS011;40975;50.390;8.640;2023-04-24T06:23:45;1.70;;;1.38;;
54388;SDS011;40975;50.390;8.640;2023-04-24T06:26:11;1.67;;;1.30;;
54388;SDS011;40975;50.390;8.640;2023-04-24T06:28:37;2.63;;;1.60;;
54388;SDS011;40975;50.390;8.640;2023-04-24T06:31:02;3.88;;;1.60;;
54388;SDS011;40975;50.390;8.640;2023-04-24T06:33:28;1.20;;;1.10;;
54388;SDS011;40975;50.390;8.640;2023-04-24T06:35:53;3.13;;;1.50;;
54388;SDS011;40975;50.390;8.640;2023-04-24T06:38:18;1.55;;;1.30;;
54388;SDS011;40975;50.390;8.640;2023-04-24T06:40:44;3.65;;;1.70;;
54388;SDS011;40975;50.390;8.640;2023-04-24T06:43:10;2.33;;;1.55;;
54388;SDS011;40975;50.390;8.640;2023-04-24T06:45:35;2.13;;;1.55;;
54388;SDS011;40975;50.390;8.640;2023-04-24T06:48:01;1.65;;;1.40;;
54388;SDS011;40975;50.390;8.640;2023-04-24T06:50:26;2.72;;;1.80;;
54388;SDS011;40975;50.390;8.640;2023-04-24T06:52:52;2.90;;;1.58;;
54388;SDS011;40975;50.390;8.640;2023-04-24T06:55:17;1.65;;;1.33;;
54388;SDS011;40975;50.390;8.640;2023-04-24T06:57:42;3.40;;;2.13;;
54388;SDS011;40975;50.390;8.640;2023-04-24T07:00:09;2.88;;;1.98;;
54388;SDS011;40975;50.390;8.640;2023-04-24T07:02:35;2.25;;;1.70;;
54388;SDS011;40975;50.390;8.640;2023-04-24T07:05:00;4.07;;;1.70;;
54388;SDS011;40975;50.390;8.640;2023-04-24T07:07:26;2.63;;;1.75;;
54388;SDS011;40975;50.390;8.640;2023-04-24T07:09:52;2.30;;;1.83;;
54388;SDS011;40975;50.390;8.640;2023-04-24T07:12:19;2.38;;;1.88;;
54388;SDS011;40975;50.390;8.640;2023-04-24T07:14:46;3.30;;;2.00;;
54388;SDS011;40975;50.390;8.640;2023-04-24T07:17:12;3.33;;;1.95;;
54388;SDS011;40975;50.390;8.640;2023-04-24T07:19:38;3.45;;;2.13;;
54388;SDS011;40975;50.390;8.640;2023-04-24T07:22:03;2.00;;;1.65;;
54388;SDS011;40975;50.390;8.640;2023-04-24T07:24:29;2.00;;;1.75;;
54388;SDS011;40975;50.390;8.640;2023-04-24T07:26:54;3.72;;;1.88;;
54388;SDS011;40975;50.390;8.640;2023-04-24T07:29:20;3.33;;;1.80;;
54388;SDS011;40975;50.390;8.640;2023-04-24T07:31:46;1.80;;;1.35;;
54388;SDS011;40975;50.390;8.640;2023-04-24T07:34:11;2.72;;;1.65;;
54388;SDS011;40975;50.390;8.640;2023-04-24T07:36:36;1.98;;;1.48;;
54388;SDS011;40975;50.390;8.640;2023-04-24T07:39:03;2.30;;;1.75;;
54388;SDS011;40975;50.390;8.640;2023-04-24T07:41:29;2.22;;;1.50;;
54388;SDS011;40975;50.390;8.640;2023-04-24T07:43:54;1.58;;;1.48;;
54388;SDS011;40975;50.390;8.640;2023-04-24T07:46:20;1.90;;;1.67;;
54388;SDS011;40975;50.390;8.640;2023-04-24T07:48:45;1.60;;;1.40;;
54388;SDS011;40975;50.390;8.640;2023-04-24T07:51:13;1.58;;;1.48;;
54388;SDS011;40975;50.390;8.640;2023-04-24T07:53:39;2.88;;;2.03;;
54388;SDS011;40975;50.390;8.640;2023-04-24T07:56:05;1.83;;;1.35;;
54388;SDS011;40975;50.390;8.640;2023-04-24T07:58:31;1.42;;;1.33;;
54388;SDS011;40975;50.390;8.640;2023-04-24T08:00:56;2.33;;;1.42;;
54388;SDS011;40975;50.390;8.640;2023-04-24T08:03:21;1.80;;;1.40;;
54388;SDS011;40975;50.390;8.640;2023-04-24T08:05:47;1.70;;;1.33;;
54388;SDS011;40975;50.390;8.640;2023-04-24T08:08:12;2.03;;;1.20;;
54388;SDS011;40975;50.390;8.640;2023-04-24T08:10:38;1.58;;;1.48;;
54388;SDS011;40975;50.390;8.640;2023-04-24T08:13:04;2.65;;;1.45;;
54388;SDS011;40975;50.390;8.640;2023-04-24T08:15:30;1.30;;;1.20;;
54388;SDS011;40975;50.390;8.640;2023-04-24T08:17:55;1.77;;;1.40;;
54388;SDS011;40975;50.390;8.640;2023-04-24T08:20:20;2.92;;;1.48;;
54388;SDS011;40975;50.390;8.640;2023-04-24T08:22:46;1.35;;;0.88;;
54388;SDS011;40975;50.390;8.640;2023-04-24T08:25:13;1.77;;;1.30;;
54388;SDS011;40975;50.390;8.640;2023-04-24T08:27:38;1.58;;;1.20;;
54388;SDS011;40975;50.390;8.640;2023-04-24T08:30:04;3.55;;;2.08;;
54388;SDS011;40975;50.390;8.640;2023-04-24T08:32:30;2.45;;;1.40;;
54388;SDS011;40975;50.390;8.640;2023-04-24T08:34:56;2.72;;;1.58;;
54388;SDS011;40975;50.390;8.640;2023-04-24T08:37:25;1.63;;;1.38;;
54388;SDS011;40975;50.390;8.640;2023-04-24T08:39:51;1.67;;;1.15;;
54388;SDS011;40975;50.390;8.640;2023-04-24T08:42:17;1.77;;;1.35;;
54388;SDS011;40975;50.390;8.640;2023-04-24T08:44:43;2.00;;;1.40;;
54388;SDS011;40975;50.390;8.640;2023-04-24T08:47:10;1.45;;;1.05;;
54388;SDS011;40975;50.390;8.640;2023-04-24T08:49:36;1.17;;;1.02;;
54388;SDS011;40975;50.390;8.640;2023-04-24T08:52:02;1.75;;;1.20;;
54388;SDS011;40975;50.390;8.640;2023-04-24T08:54:28;1.67;;;1.08;;
54388;SDS011;40975;50.390;8.640;2023-04-24T08:56:54;2.40;;;1.42;;
54388;SDS011;40975;50.390;8.640;2023-04-24T08:59:25;5.32;;;1.20;;
54388;SDS011;40975;50.390;8.640;2023-04-24T09:01:51;1.10;;;0.90;;
54388;SDS011;40975;50.390;8.640;2023-04-24T09:04:18;1.60;;;1.00;;
54388;SDS011;40975;50.390;8.640;2023-04-24T09:06:47;2.22;;;1.08;;
54388;SDS011;40975;50.390;8.640;2023-04-24T09:09:13;1.42;;;1.13;;
54388;SDS011;40975;50.390;8.640;2023-04-24T09:11:41;1.23;;;1.00;;
54388;SDS011;40975;50.390;8.640;2023-04-24T09:14:07;0.98;;;0.85;;
54388;SDS011;40975;50.390;8.640;2023-04-24T09:16:35;1.17;;;1.00;;
54388;SDS011;40975;50.390;8.640;2023-04-24T09:19:00;1.05;;;0.90;;
54388;SDS011;40975;50.390;8.640;2023-04-24T09:21:27;1.98;;;1.20;;
54388;SDS011;40975;50.390;8.640;2023-04-24T09:23:58;1.45;;;1.05;;
54388;SDS011;40975;50.390;8.640;2023-04-24T09:26:30;1.35;;;1.20;;
54388;SDS011;40975;50.390;8.640;2023-04-24T09:28:57;0.90;;;0.70;;
54388;SDS011;40975;50.390;8.640;2023-04-24T09:31:23;0.80;;;0.80;;
54388;SDS011;40975;50.390;8.640;2023-04-24T09:33:59;2.42;;;1.17;;
54388;SDS011;40975;50.390;8.640;2023-04-24T09:36:27;1.17;;;1.08;;
54388;SDS011;40975;50.390;8.640;2023-04-24T09:38:57;1.17;;;1.08;;
54388;SDS011;40975;50.390;8.640;2023-04-24T09:41:23;0.90;;;0.85;;
54388;SDS011;40975;50.390;8.640;2023-04-24T09:43:48;1.45;;;1.10;;
54388;SDS011;40975;50.390;8.640;2023-04-24T09:46:14;1.35;;;0.80;;
54388;SDS011;40975;50.390;8.640;2023-04-24T09:48:39;1.13;;;0.85;;
54388;SDS011;40975;50.390;8.640;2023-04-24T09:51:06;1.10;;;1.00;;
54388;SDS011;40975;50.390;8.640;2023-04-24T09:53:37;0.68;;;0.68;;
54388;SDS011;40975;50.390;8.640;2023-04-24T09:56:07;1.20;;;0.80;;
54388;SDS011;40975;50.390;8.640;2023-04-24T09:58:34;1.10;;;0.70;;
54388;SDS011;40975;50.390;8.640;2023-04-24T10:01:01;0.80;;;0.80;;
54388;SDS011;40975;50.390;8.640;2023-04-24T10:03:27;0.90;;;0.70;;
54388;SDS011;40975;50.390;8.640;2023-04-24T10:05:58;0.68;;;0.60;;
54388;SDS011;40975;50.390;8.640;2023-04-24T10:08:24;0.70;;;0.70;;
54388;SDS011;40975;50.390;8.640;2023-04-24T10:10:51;0.90;;;0.60;;
54388;SDS011;40975;50.390;8.640;2023-04-24T10:13:17;0.75;;;0.50;;
54388;SDS011;40975;50.390;8.640;2023-04-24T10:15:43;1.20;;;0.60;;
54388;SDS011;40975;50.390;8.640;2023-04-24T10:18:09;0.32;;;0.32;;
54388;SDS011;40975;50.390;8.640;2023-04-24T10:20:35;0.60;;;0.57;;
54388;SDS011;40975;50.390;8.640;2023-04-24T10:23:02;4.15;;;0.50;;
54388;SDS011;40975;50.390;8.640;2023-04-24T10:25:29;0.40;;;0.40;;
54388;SDS011;40975;50.390;8.640;2023-04-24T10:27:56;0.75;;;0.50;;
54388;SDS011;40975;50.390;8.640;2023-04-24T10:30:24;0.68;;;0.60;;
54388;SDS011;40975;50.390;8.640;2023-04-24T10:32:51;0.57;;;0.57;;
54388;SDS011;40975;50.390;8.640;2023-04-24T10:35:17;0.63;;;0.50;;
54388;SDS011;40975;50.390;8.640;2023-04-24T10:37:51;1.40;;;0.40;;
54388;SDS011;40975;50.390;8.640;2023-04-24T10:40:29;0.40;;;0.35;;
54388;SDS011;40975;50.390;8.640;2023-04-24T10:42:56;0.38;;;0.38;;
54388;SDS011;40975;50.390;8.640;2023-04-24T10:45:22;1.15;;;0.60;;
54388;SDS011;40975;50.390;8.640;2023-04-24T10:48:01;0.65;;;0.57;;
54388;SDS011;40975;50.390;8.640;2023-04-24T10:50:29;0.85;;;0.77;;
54388;SDS011;40975;50.390;8.640;2023-04-24T10:53:11;0.50;;;0.40;;
54388;SDS011;40975;50.390;8.640;2023-04-24T10:55:42;0.40;;;0.40;;
54388;SDS011;40975;50.390;8.640;2023-04-24T10:58:09;1.33;;;0.70;;
54388;SDS011;40975;50.390;8.640;2023-04-24T11:00:39;2.08;;;0.70;;
54388;SDS011;40975;50.390;8.640;2023-04-24T11:03:06;1.00;;;0.85;;
54388;SDS011;40975;50.390;8.640;2023-04-24T11:06:00;0.43;;;0.40;;
54388;SDS011;40975;50.390;8.640;2023-04-24T11:08:43;0.30;;;0.30;;
54388;SDS011;40975;50.390;8.640;2023-04-24T11:16:26;0.30;;;0.30;;
54388;SDS011;40975;50.390;8.640;2023-04-24T11:21:46;0.35;;;0.35;;
54388;SDS011;40975;50.390;8.640;2023-04-24T11:24:23;0.40;;;0.40;;
54388;SDS011;40975;50.390;8.640;2023-04-24T11:26:51;0.40;;;0.40;;
54388;SDS011;40975;50.390;8.640;2023-04-24T11:29:19;0.68;;;0.50;;
54388;SDS011;40975;50.390;8.640;2023-04-24T11:31:45;0.93;;;0.40;;
54388;SDS011;40975;50.390;8.640;2023-04-24T11:34:14;0.47;;;0.47;;
54388;SDS011;40975;50.390;8.640;2023-04-24T11:36:44;0.40;;;0.40;;
54388;SDS011;40975;50.390;8.640;2023-04-24T11:39:11;0.52;;;0.50;;
54388;SDS011;40975;50.390;8.640;2023-04-24T11:41:37;0.70;;;0.50;;
54388;SDS011;40975;50.390;8.640;2023-04-24T11:44:03;2.08;;;0.52;;
54388;SDS011;40975;50.390;8.640;2023-04-24T11:46:31;4.47;;;0.63;;
54388;SDS011;40975;50.390;8.640;2023-04-24T11:48:57;0.47;;;0.47;;
54388;SDS011;40975;50.390;8.640;2023-04-24T11:51:24;0.70;;;0.60;;
54388;SDS011;40975;50.390;8.640;2023-04-24T11:53:51;0.73;;;0.57;;
54388;SDS011;40975;50.390;8.640;2023-04-24T11:56:18;0.93;;;0.40;;
54388;SDS011;40975;50.390;8.640;2023-04-24T11:58:44;0.70;;;0.70;;
54388;SDS011;40975;50.390;8.640;2023-04-24T12:01:10;0.50;;;0.50;;
54388;SDS011;40975;50.390;8.640;2023-04-24T12:03:36;0.88;;;0.60;;
54388;SDS011;40975;50.390;8.640;2023-04-24T12:06:05;0.50;;;0.50;;
54388;SDS011;40975;50.390;8.640;2023-04-24T12:08:32;2.55;;;0.70;;
54388;SDS011;40975;50.390;8.640;2023-04-24T12:10:59;0.85;;;0.80;;
54388;SDS011;40975;50.390;8.640;2023-04-24T12:13:26;1.52;;;0.80;;
54388;SDS011;40975;50.390;8.640;2023-04-24T12:15:51;1.23;;;0.85;;
54388;SDS011;40975;50.390;8.640;2023-04-24T12:18:17;1.90;;;1.02;;
54388;SDS011;40975;50.390;8.640;2023-04-24T12:20:42;1.08;;;0.70;;
54388;SDS011;40975;50.390;8.640;2023-04-24T12:23:07;0.82;;;0.82;;
54388;SDS011;40975;50.390;8.640;2023-04-24T12:25:33;1.10;;;0.95;;
54388;SDS011;40975;50.390;8.640;2023-04-24T12:30:27;0.60;;;0.50;;
54388;SDS011;40975;50.390;8.640;2023-04-24T12:32:56;2.03;;;0.35;;
54388;SDS011;40975;50.390;8.640;2023-04-24T12:35:23;0.85;;;0.47;;
54388;SDS011;40975;50.390;8.640;2023-04-24T12:37:50;0.25;;;0.20;;
54388;SDS011;40975;50.390;8.640;2023-04-24T12:40:16;0.70;;;0.52;;
54388;SDS011;40975;50.390;8.640;2023-04-24T12:45:08;0.30;;;0.30;;
54388;SDS011;40975;50.390;8.640;2023-04-24T12:47:34;0.40;;;0.40;;
54388;SDS011;40975;50.390;8.640;2023-04-24T12:50:00;0.75;;;0.60;;
54388;SDS011;40975;50.390;8.640;2023-04-24T12:52:27;0.70;;;0.60;;
54388;SDS011;40975;50.390;8.640;2023-04-24T12:54:54;1.85;;;0.68;;
54388;SDS011;40975;50.390;8.640;2023-04-24T12:57:21;0.35;;;0.30;;
54388;SDS011;40975;50.390;8.640;2023-04-24T12:59:47;0.43;;;0.30;;
54388;SDS011;40975;50.390;8.640;2023-04-24T13:02:12;0.73;;;0.50;;
54388;SDS011;40975;50.390;8.640;2023-04-24T13:04:38;1.00;;;0.55;;
54388;SDS011;40975;50.390;8.640;2023-04-24T13:07:03;0.50;;;0.40;;
54388;SDS011;40975;50.390;8.640;2023-04-24T13:09:30;0.57;;;0.57;;
54388;SDS011;40975;50.390;8.640;2023-04-24T13:11:55;0.85;;;0.40;;
54388;SDS011;40975;50.390;8.640;2023-04-24T13:14:21;0.43;;;0.30;;
54388;SDS011;40975;50.390;8.640;2023-04-24T13:16:47;0.63;;;0.40;;
54388;SDS011;40975;50.390;8.640;2023-04-24T13:19:13;0.40;;;0.40;;
54388;SDS011;40975;50.390;8.640;2023-04-24T13:21:38;0.75;;;0.30;;
54388;SDS011;40975;50.390;8.640;2023-04-24T13:24:03;0.88;;;0.63;;
54388;SDS011;40975;50.390;8.640;2023-04-24T13:26:30;1.13;;;0.70;;
54388;SDS011;40975;50.390;8.640;2023-04-24T13:28:55;1.58;;;1.48;;
54388;SDS011;40975;50.390;8.640;2023-04-24T13:31:21;1.27;;;1.10;;
54388;SDS011;40975;50.390;8.640;2023-04-24T13:33:46;2.13;;;1.30;;
54388;SDS011;40975;50.390;8.640;2023-04-24T13:36:11;1.88;;;1.60;;
54388;SDS011;40975;50.390;8.640;2023-04-24T13:38:37;1.75;;;1.40;;
54388;SDS011;40975;50.390;8.640;2023-04-24T13:41:02;2.17;;;1.60;;
54388;SDS011;40975;50.390;8.640;2023-04-24T13:43:27;2.25;;;1.60;;
54388;SDS011;40975;50.390;8.640;2023-04-24T13:45:53;1.75;;;1.52;;
54388;SDS011;40975;50.390;8.640;2023-04-24T13:48:18;2.50;;;1.67;;
54388;SDS011;40975;50.390;8.640;2023-04-24T13:50:44;2.35;;;1.98;;
54388;SDS011;40975;50.390;8.640;2023-04-24T13:53:09;2.53;;;2.00;;
54388;SDS011;40975;50.390;8.640;2023-04-24T13:55:35;3.58;;;1.98;;
54388;SDS011;40975;50.390;8.640;2023-04-24T13:58:01;2.08;;;1.50;;
54388;SDS011;40975;50.390;8.640;2023-04-24T14:00:27;2.17;;;1.98;;
54388;SDS011;40975;50.390;8.640;2023-04-24T14:02:52;2.45;;;1.85;;
54388;SDS011;40975;50.390;8.640;2023-04-24T14:05:18;1.90;;;1.65;;
54388;SDS011;40975;50.390;8.640;2023-04-24T14:07:43;3.35;;;1.67;;
54388;SDS011;40975;50.390;8.640;2023-04-24T14:10:08;4.53;;;2.30;;
54388;SDS011;40975;50.390;8.640;2023-04-24T14:12:34;3.47;;;2.00;;
54388;SDS011;40975;50.390;8.640;2023-04-24T14:15:00;3.45;;;1.70;;
54388;SDS011;40975;50.390;8.640;2023-04-24T14:17:26;2.15;;;1.73;;
54388;SDS011;40975;50.390;8.640;2023-04-24T14:19:51;4.93;;;2.13;;
54388;SDS011;40975;50.390;8.640;2023-04-24T14:22:17;2.08;;;1.83;;
54388;SDS011;40975;50.390;8.640;2023-04-24T14:24:42;3.97;;;2.08;;
54388;SDS011;40975;50.390;8.640;2023-04-24T14:27:08;4.07;;;1.98;;
54388;SDS011;40975;50.390;8.640;2023-04-24T14:29:33;3.80;;;1.92;;
54388;SDS011;40975;50.390;8.640;2023-04-24T14:31:58;3.25;;;2.05;;
54388;SDS011;40975;50.390;8.640;2023-04-24T14:34:24;5.30;;;1.73;;
54388;SDS011;40975;50.390;8.640;2023-04-24T14:36:49;3.72;;;2.10;;
54388;SDS011;40975;50.390;8.640;2023-04-24T14:39:15;2.85;;;1.92;;
54388;SDS011;40975;50.390;8.640;2023-04-24T14:41:40;6.03;;;2.00;;
54388;SDS011;40975;50.390;8.640;2023-04-24T14:44:05;4.05;;;2.30;;
54388;SDS011;40975;50.390;8.640;2023-04-24T14:46:31;3.67;;;1.73;;
54388;SDS011;40975;50.390;8.640;2023-04-24T14:48:56;4.22;;;1.90;;
54388;SDS011;40975;50.390;8.640;2023-04-24T14:51:22;6.05;;;2.00;;
54388;SDS011;40975;50.390;8.640;2023-04-24T14:53:48;3.90;;;2.40;;
54388;SDS011;40975;50.390;8.640;2023-04-24T14:56:13;11.07;;;3.05;;
54388;SDS011;40975;50.390;8.640;2023-04-24T14:58:39;5.47;;;2.15;;